WZZ4618 EGLL-EHAM
Flight info
| Callsign | WZZ4618 |
|---|---|
| Flight time | 0h 38m |
| Altitude | 25000 |
| Route | BPK Q295 BRAIN M197 REDFA |
| Aircraft | A21N/M-SDE2E3FGHIRWXY/LB1 |
Departure
| Time | 2026-05-07 15:21 |
|---|---|
| Airport | London Heathrow Airport (EGLL) |
Arrival
| Time | 2026-05-07 15:59 |
|---|---|
| Airport | Amsterdam Airport Schiphol (EHAM) |
| Time | Latitude | Longitude | Altitude | Speed | Heading |
|---|---|---|---|---|---|
| 2026-05-07 15:09 | 51.46982 | -0.48243 | 94 ft | 0 kts | 91° |
| 2026-05-07 15:16 | 51.46982 | -0.48249 | 94 ft | 3 kts | 91° |
| 2026-05-07 15:16 | 51.46982 | -0.48279 | 93 ft | 3 kts | 91° |
| 2026-05-07 15:16 | 51.46982 | -0.48309 | 93 ft | 3 kts | 93° |
| 2026-05-07 15:17 | 51.46983 | -0.48338 | 94 ft | 3 kts | 93° |
| 2026-05-07 15:17 | 51.46989 | -0.48365 | 93 ft | 3 kts | 148° |
| 2026-05-07 15:17 | 51.46992 | -0.48368 | 94 ft | 0 kts | 159° |
| 2026-05-07 15:18 | 51.46944 | -0.48355 | 95 ft | 10 kts | 178° |
| 2026-05-07 15:18 | 51.46867 | -0.48356 | 96 ft | 16 kts | 180° |
| 2026-05-07 15:19 | 51.46842 | -0.48355 | 96 ft | 0 kts | 180° |
| 2026-05-07 15:19 | 51.46788 | -0.48356 | 96 ft | 14 kts | 186° |
| 2026-05-07 15:19 | 51.46736 | -0.48432 | 96 ft | 10 kts | 225° |
| 2026-05-07 15:20 | 51.46677 | -0.48466 | 98 ft | 12 kts | 182° |
| 2026-05-07 15:20 | 51.46549 | -0.48468 | 99 ft | 25 kts | 179° |
| 2026-05-07 15:20 | 51.46476 | -0.48348 | 99 ft | 12 kts | 92° |
| 2026-05-07 15:20 | 51.46479 | -0.48287 | 97 ft | 0 kts | 89° |
| 2026-05-07 15:21 | 51.46480 | -0.48005 | 93 ft | 63 kts | 89° |
| 2026-05-07 15:21 | 51.46484 | -0.46875 | 99 ft | 140 kts | 89° |
| 2026-05-07 15:21 | 51.46483 | -0.44960 | 217 ft | 191 kts | 91° |
| 2026-05-07 15:21 | 51.46492 | -0.42768 | 853 ft | 203 kts | 88° |
| 2026-05-07 15:22 | 51.46808 | -0.40429 | 1266 ft | 236 kts | 57° |
| 2026-05-07 15:22 | 51.47951 | -0.38388 | 1950 ft | 254 kts | 42° |
| 2026-05-07 15:22 | 51.49266 | -0.36461 | 3037 ft | 258 kts | 43° |
| 2026-05-07 15:22 | 51.50573 | -0.34463 | 4142 ft | 261 kts | 44° |
| 2026-05-07 15:23 | 51.51758 | -0.32210 | 5086 ft | 269 kts | 63° |
| 2026-05-07 15:23 | 51.52470 | -0.29479 | 5663 ft | 270 kts | 70° |
| 2026-05-07 15:23 | 51.53086 | -0.26613 | 5911 ft | 273 kts | 71° |
| 2026-05-07 15:23 | 51.53687 | -0.23709 | 6172 ft | 276 kts | 71° |
| 2026-05-07 15:24 | 51.54600 | -0.21007 | 6934 ft | 279 kts | 44° |
| 2026-05-07 15:24 | 51.56228 | -0.19371 | 7865 ft | 278 kts | 22° |
| 2026-05-07 15:24 | 51.58051 | -0.18290 | 8766 ft | 281 kts | 18° |
| 2026-05-07 15:24 | 51.59940 | -0.17415 | 9610 ft | 284 kts | 14° |
| 2026-05-07 15:25 | 51.61875 | -0.16612 | 10377 ft | 293 kts | 14° |
| 2026-05-07 15:25 | 51.63919 | -0.15741 | 10734 ft | 315 kts | 15° |
| 2026-05-07 15:25 | 51.66111 | -0.14769 | 11066 ft | 337 kts | 15° |
| 2026-05-07 15:25 | 51.68415 | -0.13720 | 11607 ft | 349 kts | 15° |
| 2026-05-07 15:26 | 51.70740 | -0.12646 | 12342 ft | 355 kts | 15° |
| 2026-05-07 15:26 | 51.73130 | -0.11543 | 13122 ft | 359 kts | 14° |
| 2026-05-07 15:26 | 51.75556 | -0.10491 | 13877 ft | 364 kts | 21° |
| 2026-05-07 15:26 | 51.77678 | -0.08253 | 14602 ft | 369 kts | 45° |
| 2026-05-07 15:27 | 51.79111 | -0.04817 | 15329 ft | 373 kts | 68° |
| 2026-05-07 15:27 | 51.79634 | -0.00716 | 16017 ft | 377 kts | 90° |
| 2026-05-07 15:27 | 51.79231 | 0.03473 | 16700 ft | 381 kts | 105° |
| 2026-05-07 15:27 | 51.78488 | 0.07602 | 17368 ft | 385 kts | 105° |
| 2026-05-07 15:28 | 51.77887 | 0.11831 | 17995 ft | 388 kts | 99° |
| 2026-05-07 15:28 | 51.77589 | 0.16125 | 18608 ft | 392 kts | 93° |
| 2026-05-07 15:28 | 51.77581 | 0.20547 | 19206 ft | 396 kts | 87° |
| 2026-05-07 15:28 | 51.77788 | 0.24995 | 19785 ft | 399 kts | 84° |
| 2026-05-07 15:29 | 51.78124 | 0.29472 | 20351 ft | 403 kts | 82° |
| 2026-05-07 15:29 | 51.78518 | 0.33967 | 20905 ft | 406 kts | 82° |
| 2026-05-07 15:29 | 51.78929 | 0.38504 | 21448 ft | 410 kts | 82° |
| 2026-05-07 15:29 | 51.79335 | 0.43075 | 21979 ft | 413 kts | 82° |
| 2026-05-07 15:30 | 51.79729 | 0.47685 | 22479 ft | 416 kts | 82° |
| 2026-05-07 15:30 | 51.80112 | 0.52340 | 22979 ft | 419 kts | 82° |
| 2026-05-07 15:30 | 51.80487 | 0.57028 | 23457 ft | 422 kts | 82° |
| 2026-05-07 15:30 | 51.80853 | 0.61687 | 23892 ft | 425 kts | 83° |
| 2026-05-07 15:31 | 51.81308 | 0.66428 | 24322 ft | 428 kts | 79° |
| 2026-05-07 15:31 | 51.81925 | 0.71146 | 24747 ft | 431 kts | 77° |
| 2026-05-07 15:31 | 51.82637 | 0.75873 | 24968 ft | 433 kts | 76° |
| 2026-05-07 15:31 | 51.83390 | 0.80578 | 24992 ft | 433 kts | 75° |
| 2026-05-07 15:32 | 51.84209 | 0.85265 | 24995 ft | 434 kts | 73° |
| 2026-05-07 15:32 | 51.85077 | 0.89936 | 25000 ft | 434 kts | 73° |
| 2026-05-07 15:32 | 51.85661 | 0.93022 | 25002 ft | 434 kts | 73° |
| 2026-05-07 15:32 | 51.86544 | 0.97697 | 25001 ft | 434 kts | 73° |
| 2026-05-07 15:33 | 51.87416 | 1.02365 | 25003 ft | 434 kts | 73° |
| 2026-05-07 15:33 | 51.88557 | 1.08564 | 25001 ft | 434 kts | 73° |
| 2026-05-07 15:33 | 51.89407 | 1.13247 | 24996 ft | 434 kts | 73° |
| 2026-05-07 15:33 | 51.90253 | 1.17940 | 24998 ft | 434 kts | 73° |
| 2026-05-07 15:34 | 51.90810 | 1.21044 | 25002 ft | 434 kts | 73° |
| 2026-05-07 15:34 | 51.91648 | 1.25732 | 25003 ft | 434 kts | 73° |
| 2026-05-07 15:34 | 51.92486 | 1.30429 | 24999 ft | 434 kts | 74° |
| 2026-05-07 15:34 | 51.93325 | 1.35126 | 24994 ft | 434 kts | 73° |
| 2026-05-07 15:35 | 51.94164 | 1.39816 | 24998 ft | 434 kts | 73° |
| 2026-05-07 15:35 | 51.95278 | 1.46005 | 24698 ft | 429 kts | 73° |
| 2026-05-07 15:35 | 51.95841 | 1.49146 | 24229 ft | 428 kts | 73° |
| 2026-05-07 15:35 | 51.96937 | 1.55247 | 23400 ft | 423 kts | 73° |
| 2026-05-07 15:36 | 51.97737 | 1.59814 | 23070 ft | 420 kts | 74° |
| 2026-05-07 15:36 | 51.98261 | 1.62846 | 23006 ft | 421 kts | 74° |
| 2026-05-07 15:36 | 51.99042 | 1.67426 | 22999 ft | 421 kts | 75° |
| 2026-05-07 15:36 | 51.99774 | 1.72028 | 22999 ft | 421 kts | 76° |
| 2026-05-07 15:37 | 52.00484 | 1.76625 | 23000 ft | 421 kts | 76° |
| 2026-05-07 15:37 | 52.01195 | 1.81235 | 23000 ft | 421 kts | 76° |
| 2026-05-07 15:37 | 52.01906 | 1.85843 | 23000 ft | 421 kts | 76° |
| 2026-05-07 15:37 | 52.02618 | 1.90459 | 23000 ft | 421 kts | 76° |
| 2026-05-07 15:38 | 52.03326 | 1.95063 | 23000 ft | 421 kts | 76° |
| 2026-05-07 15:38 | 52.04034 | 1.99673 | 23000 ft | 421 kts | 76° |
| 2026-05-07 15:38 | 52.04742 | 2.04286 | 23000 ft | 421 kts | 76° |
| 2026-05-07 15:38 | 52.05446 | 2.08896 | 23000 ft | 421 kts | 76° |
| 2026-05-07 15:39 | 52.06150 | 2.13512 | 23000 ft | 421 kts | 76° |
| 2026-05-07 15:39 | 52.06852 | 2.18131 | 23000 ft | 421 kts | 76° |
| 2026-05-07 15:39 | 52.07554 | 2.22747 | 23000 ft | 421 kts | 76° |
| 2026-05-07 15:39 | 52.08253 | 2.27363 | 23000 ft | 421 kts | 76° |
| 2026-05-07 15:40 | 52.08941 | 2.31920 | 23000 ft | 421 kts | 76° |
| 2026-05-07 15:40 | 52.09636 | 2.36540 | 22999 ft | 421 kts | 76° |
| 2026-05-07 15:40 | 52.10338 | 2.41161 | 23000 ft | 421 kts | 75° |
| 2026-05-07 15:40 | 52.11045 | 2.45779 | 23000 ft | 421 kts | 76° |
| 2026-05-07 15:41 | 52.11778 | 2.50377 | 22984 ft | 420 kts | 69° |
| 2026-05-07 15:41 | 52.13112 | 2.54556 | 22499 ft | 415 kts | 57° |
| 2026-05-07 15:41 | 52.14683 | 2.58489 | 21812 ft | 413 kts | 56° |
| 2026-05-07 15:41 | 52.16241 | 2.62397 | 21156 ft | 410 kts | 57° |
| 2026-05-07 15:42 | 52.17754 | 2.66309 | 20538 ft | 406 kts | 58° |
| 2026-05-07 15:42 | 52.19219 | 2.70211 | 19906 ft | 402 kts | 58° |
| 2026-05-07 15:42 | 52.20653 | 2.74096 | 19271 ft | 398 kts | 58° |
| 2026-05-07 15:42 | 52.22038 | 2.77906 | 18650 ft | 394 kts | 59° |
| 2026-05-07 15:43 | 52.23420 | 2.81748 | 18016 ft | 391 kts | 59° |
| 2026-05-07 15:43 | 52.24786 | 2.85553 | 17391 ft | 387 kts | 59° |
| 2026-05-07 15:43 | 52.26141 | 2.89334 | 16761 ft | 384 kts | 59° |
| 2026-05-07 15:43 | 52.27479 | 2.93074 | 16135 ft | 380 kts | 59° |
| 2026-05-07 15:44 | 52.28803 | 2.96787 | 15509 ft | 376 kts | 59° |
| 2026-05-07 15:44 | 52.30115 | 3.00466 | 14868 ft | 373 kts | 59° |
| 2026-05-07 15:44 | 52.31410 | 3.04115 | 14267 ft | 370 kts | 58° |
| 2026-05-07 15:44 | 52.32708 | 3.07717 | 13625 ft | 366 kts | 58° |
| 2026-05-07 15:45 | 52.33991 | 3.11289 | 12993 ft | 363 kts | 58° |
| 2026-05-07 15:45 | 52.35260 | 3.14839 | 12341 ft | 360 kts | 58° |
| 2026-05-07 15:45 | 52.36516 | 3.18347 | 11326 ft | 367 kts | 59° |
| 2026-05-07 15:45 | 52.37803 | 3.21981 | 10434 ft | 370 kts | 59° |
| 2026-05-07 15:46 | 52.40354 | 3.29238 | 8918 ft | 364 kts | 59° |
| 2026-05-07 15:46 | 52.41611 | 3.32807 | 8167 ft | 360 kts | 59° |
| 2026-05-07 15:46 | 52.42859 | 3.36339 | 7473 ft | 357 kts | 59° |
| 2026-05-07 15:47 | 52.44097 | 3.39843 | 7099 ft | 355 kts | 59° |
| 2026-05-07 15:47 | 52.45251 | 3.43413 | 6991 ft | 356 kts | 71° |
| 2026-05-07 15:47 | 52.45818 | 3.47351 | 6996 ft | 354 kts | 78° |
| 2026-05-07 15:47 | 52.46165 | 3.51288 | 6999 ft | 355 kts | 90° |
| 2026-05-07 15:48 | 52.45744 | 3.55252 | 7000 ft | 354 kts | 108° |
| 2026-05-07 15:48 | 52.44891 | 3.59034 | 6998 ft | 354 kts | 111° |
| 2026-05-07 15:48 | 52.43975 | 3.62786 | 7004 ft | 354 kts | 112° |
| 2026-05-07 15:48 | 52.43054 | 3.66532 | 7003 ft | 355 kts | 112° |
| 2026-05-07 15:49 | 52.42130 | 3.70277 | 7003 ft | 355 kts | 112° |
| 2026-05-07 15:49 | 52.41206 | 3.74024 | 6997 ft | 355 kts | 112° |
| 2026-05-07 15:49 | 52.40283 | 3.77762 | 7001 ft | 355 kts | 112° |
| 2026-05-07 15:49 | 52.39357 | 3.81506 | 7004 ft | 354 kts | 112° |
| 2026-05-07 15:50 | 52.38458 | 3.85136 | 7015 ft | 341 kts | 112° |
| 2026-05-07 15:50 | 52.37564 | 3.88739 | 6994 ft | 352 kts | 111° |
| 2026-05-07 15:50 | 52.36637 | 3.92473 | 6997 ft | 355 kts | 112° |
| 2026-05-07 15:50 | 52.35709 | 3.96213 | 6997 ft | 355 kts | 112° |
| 2026-05-07 15:51 | 52.34789 | 3.99921 | 6541 ft | 349 kts | 112° |
| 2026-05-07 15:51 | 52.33877 | 4.03582 | 5735 ft | 347 kts | 112° |
| 2026-05-07 15:51 | 52.32968 | 4.07232 | 4965 ft | 345 kts | 112° |
| 2026-05-07 15:51 | 52.32067 | 4.10845 | 4209 ft | 341 kts | 112° |
| 2026-05-07 15:52 | 52.31175 | 4.14414 | 3461 ft | 338 kts | 112° |
| 2026-05-07 15:52 | 52.30293 | 4.17953 | 2728 ft | 334 kts | 112° |
| 2026-05-07 15:52 | 52.29427 | 4.21430 | 2160 ft | 325 kts | 112° |
| 2026-05-07 15:52 | 52.28596 | 4.24765 | 1954 ft | 306 kts | 112° |
| 2026-05-07 15:53 | 52.27822 | 4.27866 | 1925 ft | 283 kts | 112° |
| 2026-05-07 15:53 | 52.27115 | 4.30688 | 1921 ft | 262 kts | 111° |
| 2026-05-07 15:53 | 52.26450 | 4.33337 | 1920 ft | 242 kts | 111° |
| 2026-05-07 15:53 | 52.25841 | 4.35754 | 1944 ft | 219 kts | 112° |
| 2026-05-07 15:54 | 52.25290 | 4.37944 | 1920 ft | 199 kts | 110° |
| 2026-05-07 15:54 | 52.24778 | 4.39955 | 1936 ft | 187 kts | 112° |
| 2026-05-07 15:54 | 52.24286 | 4.41897 | 1946 ft | 184 kts | 111° |
| 2026-05-07 15:54 | 52.23787 | 4.43843 | 1919 ft | 187 kts | 111° |
| 2026-05-07 15:55 | 52.23282 | 4.45804 | 1917 ft | 188 kts | 111° |
| 2026-05-07 15:55 | 52.22777 | 4.47763 | 1902 ft | 187 kts | 111° |
| 2026-05-07 15:55 | 52.22273 | 4.49723 | 1917 ft | 187 kts | 111° |
| 2026-05-07 15:55 | 52.21769 | 4.51682 | 1919 ft | 187 kts | 111° |
| 2026-05-07 15:56 | 52.21646 | 4.53745 | 1925 ft | 186 kts | 78° |
| 2026-05-07 15:56 | 52.22006 | 4.55765 | 1920 ft | 186 kts | 65° |
| 2026-05-07 15:56 | 52.22623 | 4.57587 | 1919 ft | 186 kts | 56° |
| 2026-05-07 15:56 | 52.23320 | 4.59375 | 1918 ft | 187 kts | 56° |
| 2026-05-07 15:57 | 52.24017 | 4.61164 | 1817 ft | 186 kts | 56° |
| 2026-05-07 15:57 | 52.24679 | 4.62892 | 1569 ft | 173 kts | 57° |
| 2026-05-07 15:57 | 52.25304 | 4.64513 | 1334 ft | 166 kts | 57° |
| 2026-05-07 15:57 | 52.25918 | 4.66090 | 1102 ft | 165 kts | 56° |
| 2026-05-07 15:58 | 52.26536 | 4.67671 | 844 ft | 165 kts | 57° |
| 2026-05-07 15:58 | 52.27150 | 4.69240 | 557 ft | 164 kts | 58° |
| 2026-05-07 15:58 | 52.27751 | 4.70811 | 382 ft | 163 kts | 56° |
| 2026-05-07 15:58 | 52.28371 | 4.72365 | 215 ft | 163 kts | 58° |
| 2026-05-07 15:59 | 52.28957 | 4.73870 | 42 ft | 152 kts | 57° |
| 2026-05-07 15:59 | 52.29496 | 4.75257 | -1 ft | 130 kts | 58° |
| 2026-05-07 15:59 | 52.29882 | 4.76245 | -3 ft | 79 kts | 57° |
| 2026-05-07 15:59 | 52.30110 | 4.76608 | 0 ft | 19 kts | 28° |
| 2026-05-07 16:00 | 52.30140 | 4.76634 | 1 ft | 7 kts | 28° |
| 2026-05-07 16:00 | 52.30150 | 4.76643 | 1 ft | 0 kts | 28° |
| 2026-05-07 16:01 | 52.30202 | 4.76688 | 1 ft | 23 kts | 24° |
| 2026-05-07 16:01 | 52.30247 | 4.76661 | 1 ft | 3 kts | 282° |
| 2026-05-07 16:01 | 52.30217 | 4.76575 | 1 ft | 21 kts | 234° |
| 2026-05-07 16:02 | 52.30138 | 4.76319 | 1 ft | 22 kts | 278° |
| 2026-05-07 16:02 | 52.30177 | 4.76268 | 1 ft | 7 kts | 20° |
| 2026-05-07 16:02 | 52.30211 | 4.76311 | 1 ft | 6 kts | 46° |
| 2026-05-07 16:02 | 52.30253 | 4.76414 | 1 ft | 22 kts | 59° |
| 2026-05-07 16:03 | 52.30370 | 4.76503 | 1 ft | 17 kts | 325° |
| 2026-05-07 16:03 | 52.30391 | 4.76440 | 1 ft | 9 kts | 268° |
| 2026-05-07 16:03 | 52.30377 | 4.76395 | 1 ft | 0 kts | 235° |